sensor_id;sensor_type;location;lat;lon;timestamp;pressure;altitude;pressure_sealevel;temperature;humidity
67457;BME280;54319;52.038;4.640;2023-03-03T00:01:16;102743.41;;;1.01;94.41
67457;BME280;54319;52.038;4.640;2023-03-03T00:03:42;102732.09;;;0.96;94.44
67457;BME280;54319;52.038;4.640;2023-03-03T00:06:12;102744.78;;;0.94;94.57
67457;BME280;54319;52.038;4.640;2023-03-03T00:08:41;102727.34;;;0.87;94.88
67457;BME280;54319;52.038;4.640;2023-03-03T00:11:09;102748.50;;;0.92;94.69
67457;BME280;54319;52.038;4.640;2023-03-03T00:13:39;102738.09;;;0.87;95.02
67457;BME280;54319;52.038;4.640;2023-03-03T00:16:13;102742.50;;;0.88;95.06
67457;BME280;54319;52.038;4.640;2023-03-03T00:18:42;102740.78;;;0.87;94.99
67457;BME280;54319;52.038;4.640;2023-03-03T00:21:21;102740.50;;;0.77;95.17
67457;BME280;54319;52.038;4.640;2023-03-03T00:23:51;102747.97;;;0.86;95.56
67457;BME280;54319;52.038;4.640;2023-03-03T00:26:21;102729.09;;;0.74;95.71
67457;BME280;54319;52.038;4.640;2023-03-03T00:28:49;102669.72;;;0.36;95.59
67457;BME280;54319;52.038;4.640;2023-03-03T00:31:18;102752.50;;;0.86;95.65
67457;BME280;54319;52.038;4.640;2023-03-03T00:33:48;102744.72;;;0.81;95.68
67457;BME280;54319;52.038;4.640;2023-03-03T00:36:27;102710.34;;;0.59;95.66
67457;BME280;54319;52.038;4.640;2023-03-03T00:39:09;102742.53;;;0.74;95.86
67457;BME280;54319;52.038;4.640;2023-03-03T00:41:38;102748.50;;;0.79;96.36
67457;BME280;54319;52.038;4.640;2023-03-03T00:44:32;102728.03;;;0.76;96.85
67457;BME280;54319;52.038;4.640;2023-03-03T00:47:12;102683.97;;;0.51;96.71
67457;BME280;54319;52.038;4.640;2023-03-03T00:49:42;102753.59;;;0.96;96.71
67457;BME280;54319;52.038;4.640;2023-03-03T00:52:13;102749.84;;;0.99;97.05
67457;BME280;54319;52.038;4.640;2023-03-03T00:54:43;102748.91;;;1.00;96.96
67457;BME280;54319;52.038;4.640;2023-03-03T00:57:10;102754.28;;;1.00;97.00
67457;BME280;54319;52.038;4.640;2023-03-03T00:59:37;102746.28;;;0.98;96.93
67457;BME280;54319;52.038;4.640;2023-03-03T01:02:04;102747.81;;;1.03;97.17
67457;BME280;54319;52.038;4.640;2023-03-03T01:04:31;102713.34;;;0.82;97.06
67457;BME280;54319;52.038;4.640;2023-03-03T01:06:58;102742.22;;;1.06;97.17
67457;BME280;54319;52.038;4.640;2023-03-03T01:09:26;102751.06;;;1.08;96.94
67457;BME280;54319;52.038;4.640;2023-03-03T01:11:54;102754.63;;;1.08;97.00
67457;BME280;54319;52.038;4.640;2023-03-03T01:14:20;102749.31;;;1.07;96.96
67457;BME280;54319;52.038;4.640;2023-03-03T01:16:47;102759.22;;;1.06;97.02
67457;BME280;54319;52.038;4.640;2023-03-03T01:19:14;102755.66;;;1.06;97.01
67457;BME280;54319;52.038;4.640;2023-03-03T01:21:41;102703.66;;;0.79;97.07
67457;BME280;54319;52.038;4.640;2023-03-03T01:24:07;102751.72;;;1.11;97.01
67457;BME280;54319;52.038;4.640;2023-03-03T01:26:34;102752.47;;;1.13;96.84
67457;BME280;54319;52.038;4.640;2023-03-03T01:29:02;102756.13;;;1.12;96.84
67457;BME280;54319;52.038;4.640;2023-03-03T01:31:29;102756.22;;;1.11;96.89
67457;BME280;54319;52.038;4.640;2023-03-03T01:33:56;102713.69;;;0.90;96.81
67457;BME280;54319;52.038;4.640;2023-03-03T01:36:23;102744.97;;;1.19;96.78
67457;BME280;54319;52.038;4.640;2023-03-03T01:38:50;102731.47;;;1.06;96.67
67457;BME280;54319;52.038;4.640;2023-03-03T01:41:19;102753.66;;;1.09;96.54
67457;BME280;54319;52.038;4.640;2023-03-03T01:43:51;102662.00;;;0.59;96.51
67457;BME280;54319;52.038;4.640;2023-03-03T01:46:41;102746.84;;;1.04;96.35
67457;BME280;54319;52.038;4.640;2023-03-03T01:49:19;102709.78;;;0.81;96.39
67457;BME280;54319;52.038;4.640;2023-03-03T01:51:49;102707.97;;;0.82;96.48
67457;BME280;54319;52.038;4.640;2023-03-03T01:54:26;102693.31;;;0.73;96.50
67457;BME280;54319;52.038;4.640;2023-03-03T01:57:05;102753.34;;;1.14;96.24
67457;BME280;54319;52.038;4.640;2023-03-03T01:59:41;102680.66;;;0.75;96.21
67457;BME280;54319;52.038;4.640;2023-03-03T02:02:19;102753.03;;;1.19;96.16
67457;BME280;54319;52.038;4.640;2023-03-03T02:04:55;102778.31;;;1.16;96.13
67457;BME280;54319;52.038;4.640;2023-03-03T02:07:28;102657.38;;;0.61;95.60
67457;BME280;54319;52.038;4.640;2023-03-03T02:09:58;102752.19;;;1.18;95.71
67457;BME280;54319;52.038;4.640;2023-03-03T02:12:33;102741.44;;;1.18;95.89
67457;BME280;54319;52.038;4.640;2023-03-03T02:15:01;102752.28;;;1.17;95.75
67457;BME280;54319;52.038;4.640;2023-03-03T02:17:40;102751.22;;;1.19;95.40
67457;BME280;54319;52.038;4.640;2023-03-03T02:20:11;102742.59;;;1.14;95.41
67457;BME280;54319;52.038;4.640;2023-03-03T02:22:43;102745.16;;;1.15;95.57
67457;BME280;54319;52.038;4.640;2023-03-03T02:25:16;102707.66;;;0.86;95.46
67457;BME280;54319;52.038;4.640;2023-03-03T02:27:48;102683.63;;;0.70;95.31
67457;BME280;54319;52.038;4.640;2023-03-03T02:30:17;102752.78;;;1.09;95.44
67457;BME280;54319;52.038;4.640;2023-03-03T02:32:44;102660.88;;;0.49;95.47
67457;BME280;54319;52.038;4.640;2023-03-03T02:35:29;102745.44;;;0.98;95.03
67457;BME280;54319;52.038;4.640;2023-03-03T02:37:59;102744.78;;;0.94;95.26
67457;BME280;54319;52.038;4.640;2023-03-03T02:40:30;102748.72;;;0.89;95.20
67457;BME280;54319;52.038;4.640;2023-03-03T02:43:04;102741.19;;;0.81;95.25
67457;BME280;54319;52.038;4.640;2023-03-03T02:45:32;102717.34;;;0.62;95.14
67457;BME280;54319;52.038;4.640;2023-03-03T02:47:58;102719.28;;;0.60;95.15
67457;BME280;54319;52.038;4.640;2023-03-03T02:50:25;102642.50;;;0.01;95.19
67457;BME280;54319;52.038;4.640;2023-03-03T02:52:52;102711.72;;;0.52;95.31
67457;BME280;54319;52.038;4.640;2023-03-03T02:55:18;102741.88;;;0.70;95.68
67457;BME280;54319;52.038;4.640;2023-03-03T02:57:45;102740.59;;;0.76;95.94
67457;BME280;54319;52.038;4.640;2023-03-03T03:00:13;102721.91;;;0.74;96.17
67457;BME280;54319;52.038;4.640;2023-03-03T03:02:40;102701.53;;;0.57;96.21
67457;BME280;54319;52.038;4.640;2023-03-03T03:05:07;102744.88;;;0.93;96.54
67457;BME280;54319;52.038;4.640;2023-03-03T03:07:34;102751.66;;;0.98;96.49
67457;BME280;54319;52.038;4.640;2023-03-03T03:10:01;102748.56;;;1.05;96.64
67457;BME280;54319;52.038;4.640;2023-03-03T03:12:27;102757.19;;;1.10;96.67
67457;BME280;54319;52.038;4.640;2023-03-03T03:14:54;102750.84;;;1.11;96.50
67457;BME280;54319;52.038;4.640;2023-03-03T03:17:22;102746.03;;;1.16;96.44
67457;BME280;54319;52.038;4.640;2023-03-03T03:19:48;102758.63;;;1.15;96.40
67457;BME280;54319;52.038;4.640;2023-03-03T03:22:15;102752.38;;;1.15;96.53
67457;BME280;54319;52.038;4.640;2023-03-03T03:24:42;102751.44;;;1.16;96.51
67457;BME280;54319;52.038;4.640;2023-03-03T03:27:09;102743.94;;;1.07;96.40
67457;BME280;54319;52.038;4.640;2023-03-03T03:29:35;102712.75;;;0.91;96.49
67457;BME280;54319;52.038;4.640;2023-03-03T03:32:03;102760.53;;;1.13;96.53
67457;BME280;54319;52.038;4.640;2023-03-03T03:34:31;102709.78;;;0.81;96.44
67457;BME280;54319;52.038;4.640;2023-03-03T03:36:58;102759.13;;;1.08;96.27
67457;BME280;54319;52.038;4.640;2023-03-03T03:39:25;102748.97;;;0.98;96.24
67457;BME280;54319;52.038;4.640;2023-03-03T03:41:51;102677.22;;;0.46;95.84
67457;BME280;54319;52.038;4.640;2023-03-03T03:44:18;102713.38;;;0.67;95.93
67457;BME280;54319;52.038;4.640;2023-03-03T03:46:45;102758.41;;;0.91;96.04
67457;BME280;54319;52.038;4.640;2023-03-03T03:49:12;102742.34;;;0.77;96.16
67457;BME280;54319;52.038;4.640;2023-03-03T03:51:40;102764.00;;;0.88;96.26
67457;BME280;54319;52.038;4.640;2023-03-03T03:54:06;102758.81;;;0.85;96.45
67457;BME280;54319;52.038;4.640;2023-03-03T03:56:33;102737.56;;;0.67;96.53
67457;BME280;54319;52.038;4.640;2023-03-03T03:59:00;102766.88;;;0.85;96.90
67457;BME280;54319;52.038;4.640;2023-03-03T04:01:26;102749.81;;;0.71;96.86
67457;BME280;54319;52.038;4.640;2023-03-03T04:03:53;102760.56;;;0.86;97.06
67457;BME280;54319;52.038;4.640;2023-03-03T04:06:20;102770.34;;;0.87;97.16
67457;BME280;54319;52.038;4.640;2023-03-03T04:08:48;102683.81;;;0.40;97.13
67457;BME280;54319;52.038;4.640;2023-03-03T04:11:14;102766.28;;;0.94;97.48
67457;BME280;54319;52.038;4.640;2023-03-03T04:13:42;102767.91;;;0.97;97.53
67457;BME280;54319;52.038;4.640;2023-03-03T04:16:09;102772.31;;;0.98;97.44
67457;BME280;54319;52.038;4.640;2023-03-03T04:18:35;102747.41;;;0.81;97.77
67457;BME280;54319;52.038;4.640;2023-03-03T04:21:02;102773.63;;;1.05;97.77
67457;BME280;54319;52.038;4.640;2023-03-03T04:23:29;102778.69;;;1.10;97.76
67457;BME280;54319;52.038;4.640;2023-03-03T04:25:57;102774.28;;;1.09;97.99
67457;BME280;54319;52.038;4.640;2023-03-03T04:28:23;102770.53;;;1.11;97.96
67457;BME280;54319;52.038;4.640;2023-03-03T04:30:52;102773.91;;;1.15;98.09
67457;BME280;54319;52.038;4.640;2023-03-03T04:33:18;102777.22;;;1.19;98.15
67457;BME280;54319;52.038;4.640;2023-03-03T04:35:45;102709.69;;;0.83;98.26
67457;BME280;54319;52.038;4.640;2023-03-03T04:38:12;102776.94;;;1.23;98.35
67457;BME280;54319;52.038;4.640;2023-03-03T04:40:39;102778.66;;;1.24;98.39
67457;BME280;54319;52.038;4.640;2023-03-03T04:43:08;102744.91;;;1.06;98.29
67457;BME280;54319;52.038;4.640;2023-03-03T04:45:35;102779.94;;;1.32;98.28
67457;BME280;54319;52.038;4.640;2023-03-03T04:48:02;102777.25;;;1.32;98.19
67457;BME280;54319;52.038;4.640;2023-03-03T04:50:29;102780.72;;;1.34;98.32
67457;BME280;54319;52.038;4.640;2023-03-03T04:52:55;102786.84;;;1.36;98.19
67457;BME280;54319;52.038;4.640;2023-03-03T04:55:22;102776.84;;;1.38;98.28
67457;BME280;54319;52.038;4.640;2023-03-03T04:57:49;102779.31;;;1.41;98.05
67457;BME280;54319;52.038;4.640;2023-03-03T05:00:17;102790.84;;;1.43;97.96
67457;BME280;54319;52.038;4.640;2023-03-03T05:02:46;102757.97;;;1.25;98.01
67457;BME280;54319;52.038;4.640;2023-03-03T05:05:13;102790.75;;;1.44;97.84
67457;BME280;54319;52.038;4.640;2023-03-03T05:07:40;102713.84;;;1.01;97.87
67457;BME280;54319;52.038;4.640;2023-03-03T05:10:07;102793.22;;;1.48;98.05
67457;BME280;54319;52.038;4.640;2023-03-03T05:12:34;102791.09;;;1.53;97.82
67457;BME280;54319;52.038;4.640;2023-03-03T05:15:01;102782.16;;;1.52;97.85
67457;BME280;54319;52.038;4.640;2023-03-03T05:17:29;102773.84;;;1.42;97.94
67457;BME280;54319;52.038;4.640;2023-03-03T05:19:55;102785.63;;;1.54;97.79
67457;BME280;54319;52.038;4.640;2023-03-03T05:22:23;102777.53;;;1.54;97.79
67457;BME280;54319;52.038;4.640;2023-03-03T05:24:51;102769.13;;;1.46;97.59
67457;BME280;54319;52.038;4.640;2023-03-03T05:27:18;102766.22;;;1.49;98.21
67457;BME280;54319;52.038;4.640;2023-03-03T05:29:45;102784.44;;;1.58;97.68
67457;BME280;54319;52.038;4.640;2023-03-03T05:32:11;102789.69;;;1.60;97.73
67457;BME280;54319;52.038;4.640;2023-03-03T05:34:39;102755.88;;;1.43;97.66
67457;BME280;54319;52.038;4.640;2023-03-03T05:37:06;102788.50;;;1.64;97.53
67457;BME280;54319;52.038;4.640;2023-03-03T05:39:33;102729.72;;;1.32;97.49
67457;BME280;54319;52.038;4.640;2023-03-03T05:42:00;102778.63;;;1.65;97.50
67457;BME280;54319;52.038;4.640;2023-03-03T05:44:27;102778.72;;;1.63;97.54
67457;BME280;54319;52.038;4.640;2023-03-03T05:46:54;102784.97;;;1.64;97.46
67457;BME280;54319;52.038;4.640;2023-03-03T05:49:22;102780.44;;;1.64;97.51
67457;BME280;54319;52.038;4.640;2023-03-03T05:51:50;102785.72;;;1.66;97.48
67457;BME280;54319;52.038;4.640;2023-03-03T05:54:16;102791.13;;;1.66;97.46
67457;BME280;54319;52.038;4.640;2023-03-03T05:56:43;102788.50;;;1.64;97.26
67457;BME280;54319;52.038;4.640;2023-03-03T05:59:10;102784.09;;;1.63;97.49
67457;BME280;54319;52.038;4.640;2023-03-03T06:01:36;102798.22;;;1.67;97.53
67457;BME280;54319;52.038;4.640;2023-03-03T06:04:04;102792.72;;;1.68;97.36
67457;BME280;54319;52.038;4.640;2023-03-03T06:06:31;102784.66;;;1.68;97.43
67457;BME280;54319;52.038;4.640;2023-03-03T06:08:59;102785.81;;;1.64;97.31
67457;BME280;54319;52.038;4.640;2023-03-03T06:11:25;102704.97;;;1.14;97.18
67457;BME280;54319;52.038;4.640;2023-03-03T06:13:52;102787.75;;;1.62;97.24
67457;BME280;54319;52.038;4.640;2023-03-03T06:16:18;102803.16;;;1.60;97.18
67457;BME280;54319;52.038;4.640;2023-03-03T06:18:45;102758.34;;;1.33;97.00
67457;BME280;54319;52.038;4.640;2023-03-03T06:21:12;102805.19;;;1.56;97.06
67457;BME280;54319;52.038;4.640;2023-03-03T06:23:39;102805.28;;;1.55;97.31
67457;BME280;54319;52.038;4.640;2023-03-03T06:26:07;102804.44;;;1.54;97.20
67457;BME280;54319;52.038;4.640;2023-03-03T06:28:34;102810.78;;;1.53;97.34
67457;BME280;54319;52.038;4.640;2023-03-03T06:31:01;102816.06;;;1.55;97.40
67457;BME280;54319;52.038;4.640;2023-03-03T06:33:27;102819.63;;;1.55;97.50
67457;BME280;54319;52.038;4.640;2023-03-03T06:35:54;102808.53;;;1.60;97.72
67457;BME280;54319;52.038;4.640;2023-03-03T06:38:21;102700.25;;;0.90;97.71
67457;BME280;54319;52.038;4.640;2023-03-03T06:40:47;102812.09;;;1.61;97.71
67457;BME280;54319;52.038;4.640;2023-03-03T06:43:15;102777.19;;;1.46;97.62
67457;BME280;54319;52.038;4.640;2023-03-03T06:45:44;102827.91;;;1.65;97.74
67457;BME280;54319;52.038;4.640;2023-03-03T06:48:11;102769.09;;;1.33;97.78
67457;BME280;54319;52.038;4.640;2023-03-03T06:50:37;102825.00;;;1.68;97.63
67457;BME280;54319;52.038;4.640;2023-03-03T06:53:11;102808.22;;;1.65;97.63
67457;BME280;54319;52.038;4.640;2023-03-03T06:55:38;102801.75;;;1.54;97.33
67457;BME280;54319;52.038;4.640;2023-03-03T06:58:09;102819.97;;;1.64;97.46
67457;BME280;54319;52.038;4.640;2023-03-03T07:00:39;102830.84;;;1.75;97.63
67457;BME280;54319;52.038;4.640;2023-03-03T07:03:14;102836.13;;;1.77;97.44
67457;BME280;54319;52.038;4.640;2023-03-03T07:05:41;102828.91;;;1.77;97.58
67457;BME280;54319;52.038;4.640;2023-03-03T07:08:12;102838.63;;;1.80;97.39
67457;BME280;54319;52.038;4.640;2023-03-03T07:10:40;102837.53;;;1.82;97.42
67457;BME280;54319;52.038;4.640;2023-03-03T07:13:17;102838.19;;;1.86;97.38
67457;BME280;54319;52.038;4.640;2023-03-03T07:15:46;102852.50;;;1.86;97.18
67457;BME280;54319;52.038;4.640;2023-03-03T07:18:24;102827.19;;;1.76;97.42
67457;BME280;54319;52.038;4.640;2023-03-03T07:20:57;102768.69;;;1.39;97.25
67457;BME280;54319;52.038;4.640;2023-03-03T07:23:26;102854.66;;;1.94;97.20
67457;BME280;54319;52.038;4.640;2023-03-03T07:25:53;102854.66;;;1.94;97.14
67457;BME280;54319;52.038;4.640;2023-03-03T07:28:22;102860.59;;;1.99;97.05
67457;BME280;54319;52.038;4.640;2023-03-03T07:30:51;102772.88;;;1.43;96.80
67457;BME280;54319;52.038;4.640;2023-03-03T07:33:23;102857.06;;;1.99;97.01
67457;BME280;54319;52.038;4.640;2023-03-03T07:35:51;102859.53;;;2.02;96.86
67457;BME280;54319;52.038;4.640;2023-03-03T07:38:24;102867.19;;;2.08;97.07
67457;BME280;54319;52.038;4.640;2023-03-03T07:40:52;102870.41;;;2.13;96.89
67457;BME280;54319;52.038;4.640;2023-03-03T07:43:29;102872.88;;;2.16;96.72
67457;BME280;54319;52.038;4.640;2023-03-03T07:46:01;102873.75;;;2.17;96.71
67457;BME280;54319;52.038;4.640;2023-03-03T07:48:32;102881.28;;;2.25;96.68
67457;BME280;54319;52.038;4.640;2023-03-03T07:51:04;102873.03;;;2.28;96.64
67457;BME280;54319;52.038;4.640;2023-03-03T07:53:33;102871.84;;;2.32;96.70
67457;BME280;54319;52.038;4.640;2023-03-03T07:56:10;102849.63;;;2.15;96.34
67457;BME280;54319;52.038;4.640;2023-03-03T07:58:41;102873.13;;;2.39;96.40
67457;BME280;54319;52.038;4.640;2023-03-03T08:01:37;102858.47;;;2.30;96.24
67457;BME280;54319;52.038;4.640;2023-03-03T08:04:20;102890.34;;;2.50;96.05
67457;BME280;54319;52.038;4.640;2023-03-03T08:06:50;102896.19;;;2.56;96.19
67457;BME280;54319;52.038;4.640;2023-03-03T08:09:29;102894.00;;;2.62;95.83
67457;BME280;54319;52.038;4.640;2023-03-03T08:11:58;102898.00;;;2.69;95.86
67457;BME280;54319;52.038;4.640;2023-03-03T08:14:29;102903.81;;;2.75;95.71
67457;BME280;54319;52.038;4.640;2023-03-03T08:16:57;102859.44;;;2.42;95.53
67457;BME280;54319;52.038;4.640;2023-03-03T08:19:24;102872.91;;;2.55;95.04
67457;BME280;54319;52.038;4.640;2023-03-03T08:21:51;102909.75;;;2.81;94.81
67457;BME280;54319;52.038;4.640;2023-03-03T08:24:22;102915.13;;;2.81;94.68
67457;BME280;54319;52.038;4.640;2023-03-03T08:26:48;102916.53;;;2.86;94.68
67457;BME280;54319;52.038;4.640;2023-03-03T08:29:15;102907.78;;;2.83;94.69
67457;BME280;54319;52.038;4.640;2023-03-03T08:31:42;102899.72;;;2.83;94.43
67457;BME280;54319;52.038;4.640;2023-03-03T08:34:10;102925.31;;;3.01;94.02
67457;BME280;54319;52.038;4.640;2023-03-03T08:36:36;102837.44;;;2.49;93.77
67457;BME280;54319;52.038;4.640;2023-03-03T08:39:04;102867.34;;;2.83;94.23
67457;BME280;54319;52.038;4.640;2023-03-03T08:41:32;102908.06;;;3.17;93.82
67457;BME280;54319;52.038;4.640;2023-03-03T08:43:58;102920.63;;;3.29;93.44
67457;BME280;54319;52.038;4.640;2023-03-03T08:46:25;102929.25;;;3.35;93.06
67457;BME280;54319;52.038;4.640;2023-03-03T08:48:52;102783.47;;;2.37;92.94
67457;BME280;54319;52.038;4.640;2023-03-03T08:51:20;102935.94;;;3.42;92.12
67457;BME280;54319;52.038;4.640;2023-03-03T08:53:47;102927.91;;;3.53;92.87
67457;BME280;54319;52.038;4.640;2023-03-03T08:56:14;102926.91;;;3.54;91.71
67457;BME280;54319;52.038;4.640;2023-03-03T08:58:40;102949.44;;;3.66;91.86
67457;BME280;54319;52.038;4.640;2023-03-03T09:01:12;102908.13;;;3.53;91.52
67457;BME280;54319;52.038;4.640;2023-03-03T09:03:38;102887.28;;;3.55;91.78
67457;BME280;54319;52.038;4.640;2023-03-03T09:06:05;102942.69;;;3.96;91.61
67457;BME280;54319;52.038;4.640;2023-03-03T09:08:33;102933.91;;;4.05;91.07
67457;BME280;54319;52.038;4.640;2023-03-03T09:11:00;102937.03;;;4.24;90.17
67457;BME280;54319;52.038;4.640;2023-03-03T09:13:28;102933.59;;;4.22;89.51
67457;BME280;54319;52.038;4.640;2023-03-03T09:15:56;102908.75;;;4.16;89.72
67457;BME280;54319;52.038;4.640;2023-03-03T09:18:30;102936.47;;;4.43;89.59
67457;BME280;54319;52.038;4.640;2023-03-03T09:21:13;102849.88;;;3.97;89.54
67457;BME280;54319;52.038;4.640;2023-03-03T09:23:48;102935.38;;;4.68;88.87
67457;BME280;54319;52.038;4.640;2023-03-03T09:26:29;102859.31;;;4.39;87.30
67457;BME280;54319;52.038;4.640;2023-03-03T09:29:07;102936.25;;;4.80;86.75
67457;BME280;54319;52.038;4.640;2023-03-03T09:31:38;102843.44;;;4.45;87.87
67457;BME280;54319;52.038;4.640;2023-03-03T09:34:17;102932.31;;;5.18;85.91
67457;BME280;54319;52.038;4.640;2023-03-03T09:36:45;102929.94;;;5.25;84.95
67457;BME280;54319;52.038;4.640;2023-03-03T09:39:17;102937.06;;;5.26;84.89
67457;BME280;54319;52.038;4.640;2023-03-03T09:45:22;102923.94;;;5.65;84.39
67457;BME280;54319;52.038;4.640;2023-03-03T09:48:18;102932.56;;;5.59;83.22
67457;BME280;54319;52.038;4.640;2023-03-03T09:50:58;102902.50;;;5.30;83.80
67457;BME280;54319;52.038;4.640;2023-03-03T09:53:46;102936.41;;;5.57;84.49
67457;BME280;54319;52.038;4.640;2023-03-03T09:56:23;102932.22;;;5.64;83.55
67457;BME280;54319;52.038;4.640;2023-03-03T09:59:06;102886.44;;;5.61;83.53
67457;BME280;54319;52.038;4.640;2023-03-03T10:02:01;102939.19;;;6.11;80.33
67457;BME280;54319;52.038;4.640;2023-03-03T10:07:38;102941.06;;;5.99;80.16
67457;BME280;54319;52.038;4.640;2023-03-03T10:10:19;102944.69;;;5.88;80.25
67457;BME280;54319;52.038;4.640;2023-03-03T10:13:00;102938.31;;;5.77;80.41
67457;BME280;54319;52.038;4.640;2023-03-03T10:15:38;102941.91;;;5.67;80.31
67457;BME280;54319;52.038;4.640;2023-03-03T10:18:18;102893.63;;;5.39;81.04
67457;BME280;54319;52.038;4.640;2023-03-03T10:20:58;102932.25;;;5.85;81.10
67457;BME280;54319;52.038;4.640;2023-03-03T10:23:45;102918.97;;;6.15;81.38
67457;BME280;54319;52.038;4.640;2023-03-03T10:26:20;102931.22;;;6.61;78.56
67457;BME280;54319;52.038;4.640;2023-03-03T10:28:58;102919.88;;;6.77;78.49
67457;BME280;54319;52.038;4.640;2023-03-03T10:31:35;102906.41;;;6.97;76.58
67457;BME280;54319;52.038;4.640;2023-03-03T10:34:17;102811.59;;;6.55;75.56
67457;BME280;54319;52.038;4.640;2023-03-03T10:36:54;102939.53;;;7.42;75.08
67457;BME280;54319;52.038;4.640;2023-03-03T10:39:39;102932.16;;;7.63;73.17
67457;BME280;54319;52.038;4.640;2023-03-03T10:42:21;102934.03;;;7.73;72.82
67457;BME280;54319;52.038;4.640;2023-03-03T10:45:08;102934.72;;;7.75;71.51
67457;BME280;54319;52.038;4.640;2023-03-03T10:47:57;102931.16;;;7.74;70.34
67457;BME280;54319;52.038;4.640;2023-03-03T10:50:35;102921.72;;;7.88;70.14
67457;BME280;54319;52.038;4.640;2023-03-03T10:53:20;102945.88;;;7.91;69.63
67457;BME280;54319;52.038;4.640;2023-03-03T10:55:55;102930.31;;;7.74;69.65
67457;BME280;54319;52.038;4.640;2023-03-03T10:58:45;102922.69;;;7.48;70.37
67457;BME280;54319;52.038;4.640;2023-03-03T11:01:23;102937.78;;;7.21;70.14
67457;BME280;54319;52.038;4.640;2023-03-03T11:06:52;102894.19;;;6.81;71.04
67457;BME280;54319;52.038;4.640;2023-03-03T11:12:47;102920.44;;;6.71;70.72
67457;BME280;54319;52.038;4.640;2023-03-03T11:15:48;102924.50;;;6.56;71.05
67457;BME280;54319;52.038;4.640;2023-03-03T11:18:27;102925.16;;;6.48;71.71
67457;BME280;54319;52.038;4.640;2023-03-03T11:21:04;102927.69;;;6.40;72.12
67457;BME280;54319;52.038;4.640;2023-03-03T11:23:53;102925.22;;;6.58;72.81
67457;BME280;54319;52.038;4.640;2023-03-03T11:26:33;102923.31;;;6.79;70.64
67457;BME280;54319;52.038;4.640;2023-03-03T11:29:15;102919.00;;;6.98;69.86
67457;BME280;54319;52.038;4.640;2023-03-03T11:31:48;102923.50;;;7.29;68.65
67457;BME280;54319;52.038;4.640;2023-03-03T11:34:35;102922.41;;;7.41;65.77
67457;BME280;54319;52.038;4.640;2023-03-03T11:37:08;102909.38;;;7.45;66.63
67457;BME280;54319;52.038;4.640;2023-03-03T11:39:38;102928.84;;;7.50;65.57
67457;BME280;54319;52.038;4.640;2023-03-03T11:42:12;102887.22;;;7.39;65.60
67457;BME280;54319;52.038;4.640;2023-03-03T11:44:44;102916.44;;;7.96;65.85
67457;BME280;54319;52.038;4.640;2023-03-03T11:47:17;102916.66;;;8.33;64.57
67457;BME280;54319;52.038;4.640;2023-03-03T11:49:49;102911.50;;;8.49;60.57
67457;BME280;54319;52.038;4.640;2023-03-03T11:52:28;102914.81;;;8.43;58.71
67457;BME280;54319;52.038;4.640;2023-03-03T11:55:01;102912.94;;;8.53;59.67
67457;BME280;54319;52.038;4.640;2023-03-03T11:57:32;102899.94;;;8.28;60.23
67457;BME280;54319;52.038;4.640;2023-03-03T12:00:15;102914.38;;;8.38;60.30
67457;BME280;54319;52.038;4.640;2023-03-03T12:03:20;102910.13;;;8.06;61.21
67457;BME280;54319;52.038;4.640;2023-03-03T12:06:01;102895.13;;;7.82;62.36
67457;BME280;54319;52.038;4.640;2023-03-03T12:08:41;102888.09;;;7.60;62.30
67457;BME280;54319;52.038;4.640;2023-03-03T12:11:12;102910.84;;;7.68;62.31
67457;BME280;54319;52.038;4.640;2023-03-03T12:13:53;102909.84;;;7.60;65.24
67457;BME280;54319;52.038;4.640;2023-03-03T12:16:29;102904.69;;;7.47;65.00
67457;BME280;54319;52.038;4.640;2023-03-03T12:19:14;102883.50;;;7.31;66.08
67457;BME280;54319;52.038;4.640;2023-03-03T12:22:01;102908.38;;;7.46;66.00
67457;BME280;54319;52.038;4.640;2023-03-03T12:27:30;102897.53;;;7.46;64.33
67457;BME280;54319;52.038;4.640;2023-03-03T12:30:08;102893.25;;;7.53;64.51
67457;BME280;54319;52.038;4.640;2023-03-03T12:32:52;102887.22;;;7.39;64.60
67457;BME280;54319;52.038;4.640;2023-03-03T12:35:29;102883.38;;;7.32;64.40
67457;BME280;54319;52.038;4.640;2023-03-03T12:38:09;102889.75;;;7.12;64.64
67457;BME280;54319;52.038;4.640;2023-03-03T12:40:43;102890.44;;;7.04;65.10
67457;BME280;54319;52.038;4.640;2023-03-03T12:43:24;102891.28;;;7.04;65.99
67457;BME280;54319;52.038;4.640;2023-03-03T12:45:59;102866.28;;;6.91;65.53
67457;BME280;54319;52.038;4.640;2023-03-03T12:48:38;102888.09;;;6.89;65.58
67457;BME280;54319;52.038;4.640;2023-03-03T12:51:14;102887.97;;;7.01;65.32
67457;BME280;54319;52.038;4.640;2023-03-03T12:53:59;102876.38;;;7.39;65.72
67457;BME280;54319;52.038;4.640;2023-03-03T12:56:32;102881.25;;;7.95;62.84
67457;BME280;54319;52.038;4.640;2023-03-03T12:59:03;102875.44;;;8.37;62.71
67457;BME280;54319;52.038;4.640;2023-03-03T13:01:48;102795.66;;;8.19;60.45
67457;BME280;54319;52.038;4.640;2023-03-03T13:04:28;102871.81;;;8.57;59.59
67457;BME280;54319;52.038;4.640;2023-03-03T13:07:03;102876.25;;;8.58;60.71
67457;BME280;54319;52.038;4.640;2023-03-03T13:09:42;102869.53;;;8.52;57.83
67457;BME280;54319;52.038;4.640;2023-03-03T13:12:27;102877.88;;;8.31;58.27
67457;BME280;54319;52.038;4.640;2023-03-03T13:15:04;102864.56;;;8.28;58.95
67457;BME280;54319;52.038;4.640;2023-03-03T13:17:37;102864.25;;;8.40;59.24
67457;BME280;54319;52.038;4.640;2023-03-03T13:20:16;102845.78;;;8.44;60.28
67457;BME280;54319;52.038;4.640;2023-03-03T13:22:49;102851.94;;;8.56;60.25
67457;BME280;54319;52.038;4.640;2023-03-03T13:25:32;102861.19;;;8.73;59.31
67457;BME280;54319;52.038;4.640;2023-03-03T13:28:03;102863.03;;;8.73;58.33
67457;BME280;54319;52.038;4.640;2023-03-03T13:30:33;102859.31;;;8.74;57.00
67457;BME280;54319;52.038;4.640;2023-03-03T13:33:07;102865.53;;;8.84;57.08
67457;BME280;54319;52.038;4.640;2023-03-03T13:35:41;102865.50;;;8.94;57.03
67457;BME280;54319;52.038;4.640;2023-03-03T13:38:12;102861.38;;;8.90;57.04
67457;BME280;54319;52.038;4.640;2023-03-03T13:40:45;102822.25;;;8.63;56.34